Haleakala, Hawaii
Current Conditions -  °F | °C
As of 9:54 PM on Friday 19 Dec 2014 (Local Time) from PHOG Reporting Station
Clear Clear  
Wind Chill: 69°   Ceiling: Unl
Heat Index: 69°   Visibility: 10mi
Dew Point: 63°   Wind: 6mph
Humidity: 81%   Direction: 140°SE
Pressure: 30.03"   Gusts: NA
Location:  20.72°N, 156.13°W
Report Text: PHOG 200754Z 14005KT 10SM CLR 21/17 A3003 RMK AO2 SLP174 T02060172 $
Loading
Personal Weather Stations






























Interactive Weather Map New forecast layout! Learn more

10-Day Weather Forecast

Advertisements
Track Severe Weather on mobile